createdAt,value
2018-06-17T00:01:42.400Z,26.40
2018-06-17T00:04:12.176Z,27.23
2018-06-17T00:06:41.674Z,27.00
2018-06-17T00:09:11.993Z,28.97
2018-06-17T00:11:41.806Z,28.83
2018-06-17T00:14:12.317Z,32.10
2018-06-17T00:16:43.227Z,28.10
2018-06-17T00:19:13.041Z,29.80
2018-06-17T00:21:42.845Z,30.30
2018-06-17T00:24:13.078Z,29.27
2018-06-17T00:26:42.869Z,27.57
2018-06-17T00:29:12.618Z,28.13
2018-06-17T00:31:42.407Z,29.60
2018-06-17T00:34:12.228Z,32.83
2018-06-17T00:36:42.032Z,33.10
2018-06-17T00:39:13.140Z,35.73
2018-06-17T00:41:42.940Z,33.90
2018-06-17T00:44:12.792Z,34.63
2018-06-17T00:46:42.593Z,34.13
2018-06-17T00:49:12.405Z,33.80
2018-06-17T00:51:42.171Z,39.20
2018-06-17T00:54:12.038Z,36.70
2018-06-17T00:56:41.831Z,34.77
2018-06-17T00:59:11.603Z,36.17
2018-06-17T01:01:41.063Z,38.00
2018-06-17T01:04:10.636Z,38.80
2018-06-17T01:06:40.891Z,36.13
2018-06-17T01:09:10.732Z,35.17
2018-06-17T01:11:40.562Z,37.63
2018-06-17T01:14:10.329Z,38.30
2018-06-17T01:16:40.095Z,34.63
2018-06-17T01:19:09.903Z,37.30
2018-06-17T01:21:39.682Z,35.60
2018-06-17T01:24:09.500Z,33.33
2018-06-17T01:26:39.266Z,33.33
2018-06-17T01:29:09.078Z,30.03
2018-06-17T01:31:38.836Z,32.10
2018-06-17T01:34:08.699Z,30.57
2018-06-17T01:36:38.621Z,28.27
2018-06-17T01:39:09.110Z,28.73
2018-06-17T01:41:38.909Z,23.40
2018-06-17T01:44:08.686Z,25.33
2018-06-17T01:46:38.708Z,30.63
2018-06-17T01:49:09.445Z,27.37
2018-06-17T01:51:39.684Z,25.07
2018-06-17T01:54:09.480Z,31.03
2018-06-17T01:56:39.296Z,26.20
2018-06-17T01:59:09.051Z,21.30
2018-06-17T02:01:38.823Z,22.37
2018-06-17T02:04:14.103Z,27.03
2018-06-17T02:06:49.211Z,22.40
2018-06-17T02:09:24.295Z,21.60
2018-06-17T02:11:59.429Z,22.70
2018-06-17T02:15:05.086Z,19.57
2018-06-17T02:17:34.925Z,18.10
2018-06-17T02:20:04.698Z,16.37
2018-06-17T02:22:34.508Z,19.17
2018-06-17T02:25:04.063Z,20.87
2018-06-17T02:27:33.693Z,20.00
2018-06-17T02:30:03.611Z,15.93
2018-06-17T02:32:33.385Z,21.87
2018-06-17T02:35:03.189Z,14.67
2018-06-17T02:37:32.656Z,14.93
2018-06-17T02:40:02.233Z,23.87
2018-06-17T02:42:32.042Z,15.50
2018-06-17T02:45:07.310Z,13.67
2018-06-17T02:47:42.367Z,13.37
2018-06-17T02:50:17.390Z,11.83
2018-06-17T02:52:52.357Z,11.47
2018-06-17T02:55:22.115Z,13.10
2018-06-17T02:57:51.869Z,16.87
2018-06-17T03:00:21.652Z,12.63
2018-06-17T03:02:51.393Z,20.33
2018-06-17T03:05:21.170Z,14.20
2018-06-17T03:07:50.995Z,14.20
2018-06-17T03:10:20.800Z,10.87
2018-06-17T03:12:50.557Z,10.47
2018-06-17T03:15:20.327Z,12.10
2018-06-17T03:17:50.101Z,10.70
2018-06-17T03:20:20.616Z,13.23
2018-06-17T03:22:50.634Z,13.77
2018-06-17T03:25:25.760Z,10.80
2018-06-17T03:28:01.100Z,13.87
2018-06-17T03:30:36.929Z,13.13
2018-06-17T03:33:12.070Z,11.40
2018-06-17T03:35:47.016Z,9.57
2018-06-17T03:38:16.874Z,8.57
2018-06-17T03:40:46.825Z,7.70
2018-06-17T03:43:16.584Z,5.60
2018-06-17T03:45:46.356Z,9.37
2018-06-17T03:48:16.177Z,5.80
2018-06-17T03:50:45.939Z,6.70
2018-06-17T03:53:15.676Z,7.80
2018-06-17T03:55:45.454Z,9.60
2018-06-17T03:58:15.441Z,4.07
2018-06-17T04:00:45.624Z,8.80
2018-06-17T04:03:15.384Z,5.47
2018-06-17T04:05:45.154Z,4.67
2018-06-17T04:08:14.921Z,6.73
2018-06-17T04:10:45.070Z,5.03
2018-06-17T04:13:14.809Z,5.80
2018-06-17T04:15:44.560Z,8.17
2018-06-17T04:18:15.045Z,9.57
2018-06-17T04:20:44.815Z,5.13
2018-06-17T04:23:14.276Z,6.20
2018-06-17T04:25:43.854Z,4.50
2018-06-17T04:28:13.613Z,10.00
2018-06-17T04:30:43.444Z,6.93
2018-06-17T04:33:13.201Z,7.33
2018-06-17T04:35:43.829Z,8.47
2018-06-17T04:38:13.591Z,7.90
2018-06-17T04:40:44.320Z,4.97
2018-06-17T04:43:14.113Z,4.93
2018-06-17T04:45:43.888Z,4.47
2018-06-17T04:48:13.624Z,7.37
2018-06-17T04:50:43.627Z,6.07
2018-06-17T04:53:13.411Z,4.80
2018-06-17T04:55:43.161Z,4.77
2018-06-17T04:58:12.926Z,5.70
2018-06-17T05:00:43.332Z,8.03
2018-06-17T05:03:13.079Z,5.73
2018-06-17T05:05:42.837Z,6.03
2018-06-17T05:08:13.367Z,5.17
2018-06-17T05:10:43.591Z,4.10
2018-06-17T05:13:13.785Z,4.47
2018-06-17T05:15:43.545Z,4.20
2018-06-17T05:18:13.308Z,4.17
2018-06-17T05:20:43.220Z,4.70
2018-06-17T05:23:13.084Z,4.77
2018-06-17T05:25:42.865Z,4.67
2018-06-17T05:28:12.782Z,5.63
2018-06-17T05:30:42.270Z,6.80
2018-06-17T05:33:11.816Z,5.40
2018-06-17T05:35:41.594Z,9.80
2018-06-17T05:38:11.369Z,4.00
2018-06-17T05:40:41.147Z,9.60
2018-06-17T05:43:10.885Z,4.17
2018-06-17T05:45:40.676Z,3.37
2018-06-17T05:48:10.469Z,3.60
2018-06-17T05:50:40.219Z,6.60
2018-06-17T05:53:10.597Z,4.30
2018-06-17T05:55:40.454Z,5.60
2018-06-17T05:58:11.860Z,4.13
2018-06-17T06:00:41.786Z,6.73
2018-06-17T06:03:11.356Z,6.13
2018-06-17T06:05:41.489Z,7.83
2018-06-17T06:08:10.964Z,3.93
2018-06-17T06:10:40.546Z,4.20
2018-06-17T06:13:10.352Z,3.33
2018-06-17T06:15:40.468Z,3.90
2018-06-17T06:18:10.226Z,8.57
2018-06-17T06:20:39.988Z,3.30
2018-06-17T06:23:09.789Z,7.73
2018-06-17T06:25:41.204Z,10.30
2018-06-17T06:28:11.877Z,7.20
2018-06-17T06:30:41.658Z,6.00
2018-06-17T06:33:11.540Z,3.77
2018-06-17T06:35:41.322Z,4.57
2018-06-17T06:38:11.441Z,4.50
2018-06-17T06:40:41.178Z,4.07
2018-06-17T06:43:12.283Z,4.50
2018-06-17T06:45:42.113Z,7.03
2018-06-17T06:48:13.148Z,3.50
2018-06-17T06:50:43.730Z,3.67
2018-06-17T06:53:15.480Z,6.30
2018-06-17T06:55:45.319Z,4.27
2018-06-17T06:58:15.105Z,9.53
2018-06-17T07:00:46.427Z,3.40
2018-06-17T07:03:27.709Z,4.57
2018-06-17T07:06:08.909Z,5.70
2018-06-17T07:08:49.977Z,7.10
2018-06-17T07:11:19.752Z,3.33
2018-06-17T07:13:49.942Z,7.60
2018-06-17T07:17:30.484Z,4.00
2018-06-17T07:20:00.248Z,5.73
2018-06-17T07:22:30.458Z,4.37
2018-06-17T07:25:00.098Z,6.90
2018-06-17T07:27:40.839Z,7.03
2018-06-17T07:30:10.373Z,3.30
2018-06-17T07:32:39.949Z,3.00
2018-06-17T07:35:09.472Z,6.60
2018-06-17T07:37:39.816Z,4.17
2018-06-17T07:40:20.865Z,5.90
2018-06-17T07:42:50.513Z,5.00
2018-06-17T07:45:20.079Z,8.83
2018-06-17T07:47:49.749Z,5.50
2018-06-17T07:50:30.560Z,7.00
2018-06-17T07:53:11.417Z,4.30
2018-06-17T07:55:41.641Z,4.50
2018-06-17T07:58:11.238Z,4.40
2018-06-17T08:00:40.830Z,6.53
2018-06-17T08:03:10.554Z,4.70
2018-06-17T08:05:40.090Z,6.90
2018-06-17T08:08:09.671Z,4.43
2018-06-17T08:10:39.284Z,6.10
2018-06-17T08:13:08.819Z,5.47
2018-06-17T08:15:38.442Z,4.17
2018-06-17T08:18:08.269Z,7.30
2018-06-17T08:20:37.850Z,4.47
2018-06-17T08:23:08.960Z,4.93
2018-06-17T08:25:38.589Z,5.90
2018-06-17T08:28:08.225Z,8.17
2018-06-17T08:30:37.867Z,4.90
2018-06-17T08:33:07.433Z,6.00
2018-06-17T08:35:36.971Z,4.87
2018-06-17T08:38:06.682Z,4.67
2018-06-17T08:40:36.839Z,8.70
2018-06-17T08:43:06.446Z,4.90
2018-06-17T08:45:36.050Z,6.93
2018-06-17T08:48:06.721Z,7.03
2018-06-17T08:50:36.360Z,9.20
2018-06-17T08:53:06.715Z,6.13
2018-06-17T08:55:36.426Z,4.50
2018-06-17T08:58:05.994Z,7.00
2018-06-17T09:00:35.650Z,7.33
2018-06-17T09:03:05.183Z,6.23
2018-06-17T09:05:34.783Z,5.43
2018-06-17T09:08:05.360Z,6.33
2018-06-17T09:10:35.354Z,4.47
2018-06-17T09:13:04.917Z,5.10
2018-06-17T09:15:34.468Z,5.50
2018-06-17T09:18:03.987Z,5.50
2018-06-17T09:20:33.557Z,12.53
2018-06-17T09:23:03.561Z,8.20
2018-06-17T09:25:33.237Z,4.03
2018-06-17T09:28:02.794Z,8.00
2018-06-17T09:30:32.348Z,5.10
2018-06-17T09:33:01.952Z,5.47
2018-06-17T09:35:31.856Z,5.13
2018-06-17T09:38:01.528Z,5.50
2018-06-17T09:40:31.645Z,5.50
2018-06-17T09:43:01.321Z,6.63
2018-06-17T09:45:30.888Z,5.30
2018-06-17T09:48:00.551Z,4.83
2018-06-17T09:50:30.218Z,5.37
2018-06-17T09:53:00.012Z,6.50
2018-06-17T09:55:29.596Z,5.97
2018-06-17T09:57:59.171Z,7.67
2018-06-17T10:00:28.714Z,4.93
2018-06-17T10:02:58.628Z,8.13
2018-06-17T10:05:28.244Z,4.40
2018-06-17T10:07:58.349Z,6.67
2018-06-17T10:10:48.447Z,7.50
2018-06-17T10:13:18.783Z,5.10
2018-06-17T10:15:49.199Z,3.83
2018-06-17T10:18:19.751Z,4.80
2018-06-17T10:20:49.633Z,4.83
2018-06-17T10:23:20.033Z,3.60
2018-06-17T10:25:49.861Z,5.37
2018-06-17T10:28:20.418Z,9.17
2018-06-17T10:30:51.262Z,3.70
2018-06-17T10:33:21.462Z,4.30
2018-06-17T10:35:51.399Z,7.37
2018-06-17T10:38:21.190Z,8.93
2018-06-17T10:40:50.681Z,4.97
2018-06-17T10:43:24.461Z,9.87
2018-06-17T10:45:54.368Z,5.67
2018-06-17T10:48:24.236Z,6.80
2018-06-17T10:50:54.069Z,6.70
2018-06-17T10:53:23.986Z,5.43
2018-06-17T10:55:54.092Z,7.70
2018-06-17T10:58:23.795Z,5.13
2018-06-17T11:00:53.604Z,4.60
2018-06-17T11:03:23.924Z,6.50
2018-06-17T11:05:54.281Z,4.40
2018-06-17T11:08:24.248Z,4.10
2018-06-17T11:10:54.038Z,6.93
2018-06-17T11:13:23.949Z,4.20
2018-06-17T11:15:53.856Z,7.60
2018-06-17T11:18:23.673Z,4.33
2018-06-17T11:20:53.561Z,8.43
2018-06-17T11:23:23.402Z,5.27
2018-06-17T11:25:53.399Z,6.47
2018-06-17T11:28:23.807Z,8.13
2018-06-17T11:30:54.324Z,7.40
2018-06-17T11:33:24.112Z,4.10
2018-06-17T11:35:54.551Z,5.70
2018-06-17T11:38:24.417Z,8.50
2018-06-17T11:40:54.701Z,5.73
2018-06-17T11:43:24.501Z,3.73
2018-06-17T11:45:54.586Z,5.60
2018-06-17T11:48:24.509Z,5.00
2018-06-17T11:50:54.126Z,4.50
2018-06-17T11:53:24.743Z,5.20
2018-06-17T11:55:54.844Z,3.63
2018-06-17T11:58:24.707Z,7.37
2018-06-17T12:00:55.518Z,6.90
2018-06-17T12:03:25.736Z,6.53
2018-06-17T12:05:55.911Z,4.53
2018-06-17T12:08:26.387Z,5.47
2018-06-17T12:10:56.245Z,3.13
2018-06-17T12:13:26.042Z,7.47
2018-06-17T12:15:55.893Z,8.10
2018-06-17T12:18:26.614Z,3.00
2018-06-17T12:20:57.260Z,6.93
2018-06-17T12:23:27.179Z,8.10
2018-06-17T12:25:57.159Z,4.07
2018-06-17T12:28:27.896Z,8.00
2018-06-17T12:30:57.680Z,8.70
2018-06-17T12:33:27.528Z,4.47
2018-06-17T12:35:57.389Z,3.87
2018-06-17T12:38:27.378Z,4.53
2018-06-17T12:40:57.444Z,3.67
2018-06-17T12:43:33.673Z,6.90
2018-06-17T12:46:03.641Z,5.77
2018-06-17T12:48:34.373Z,4.37
2018-06-17T12:51:04.424Z,6.77
2018-06-17T12:53:34.249Z,3.30
2018-06-17T12:56:04.264Z,4.47
2018-06-17T12:58:34.078Z,3.70
2018-06-17T13:01:04.494Z,4.87
2018-06-17T13:03:34.520Z,4.10
2018-06-17T13:06:04.116Z,6.47
2018-06-17T13:08:33.818Z,4.83
2018-06-17T13:11:04.843Z,4.23
2018-06-17T13:13:35.303Z,5.60
2018-06-17T13:16:05.358Z,7.07
2018-06-17T13:18:35.206Z,3.90
2018-06-17T13:21:05.019Z,4.80
2018-06-17T13:23:34.828Z,9.30
2018-06-17T13:26:04.681Z,5.20
2018-06-17T13:28:34.540Z,5.80
2018-06-17T13:31:04.478Z,6.03
2018-06-17T13:33:34.281Z,8.00
2018-06-17T13:36:04.846Z,8.27
2018-06-17T13:38:34.688Z,5.90
2018-06-17T13:41:04.548Z,8.33
2018-06-17T13:43:35.002Z,4.83
2018-06-17T13:46:04.508Z,9.43
2018-06-17T13:48:34.678Z,6.30
2018-06-17T13:51:04.500Z,6.67
2018-06-17T13:53:35.342Z,4.30
2018-06-17T13:56:05.125Z,4.10
2018-06-17T13:58:34.919Z,6.80
2018-06-17T14:01:05.346Z,5.07
2018-06-17T14:03:35.164Z,4.03
2018-06-17T14:06:05.017Z,4.83
2018-06-17T14:08:34.830Z,5.67
2018-06-17T14:11:05.332Z,5.43
2018-06-17T14:13:35.176Z,7.07
2018-06-17T14:16:05.122Z,6.13
2018-06-17T14:18:35.144Z,4.70
2018-06-17T14:21:05.031Z,5.47
2018-06-17T14:23:34.809Z,5.10
2018-06-17T14:26:04.631Z,3.70
2018-06-17T14:28:34.507Z,5.83
2018-06-17T14:31:04.761Z,5.10
2018-06-17T14:33:34.561Z,5.97
2018-06-17T14:36:04.503Z,4.57
2018-06-17T14:38:34.313Z,3.93
2018-06-17T14:41:09.357Z,9.53
2018-06-17T14:43:44.449Z,2.83
2018-06-17T14:46:20.127Z,3.50
2018-06-17T14:48:54.929Z,7.03
2018-06-17T14:51:30.029Z,2.40
2018-06-17T14:53:59.920Z,6.97
2018-06-17T14:56:29.732Z,11.80
2018-06-17T14:59:00.072Z,5.13
2018-06-17T15:01:29.929Z,4.67
2018-06-17T15:03:59.793Z,4.40
2018-06-17T15:06:30.811Z,3.00
2018-06-17T15:09:00.752Z,9.73
2018-06-17T15:11:30.820Z,7.00
2018-06-17T15:14:00.400Z,2.77
2018-06-17T15:16:30.409Z,6.53
2018-06-17T15:19:00.201Z,4.57
2018-06-17T15:21:30.091Z,4.63
2018-06-17T15:23:59.956Z,4.07
2018-06-17T15:26:29.885Z,4.37
2018-06-17T15:28:59.652Z,3.47
2018-06-17T15:31:34.926Z,4.60
2018-06-17T15:34:10.312Z,4.00
2018-06-17T15:36:46.128Z,6.10
2018-06-17T15:39:21.404Z,3.43
2018-06-17T15:41:51.789Z,4.93
2018-06-17T15:44:21.612Z,3.90
2018-06-17T15:46:51.421Z,5.97
2018-06-17T15:49:21.250Z,4.20
2018-06-17T15:51:51.105Z,6.90
2018-06-17T15:54:21.911Z,4.60
2018-06-17T15:56:51.356Z,3.23
2018-06-17T15:59:20.944Z,4.20
2018-06-17T16:01:50.832Z,4.50
2018-06-17T16:04:20.677Z,3.83
2018-06-17T16:06:50.604Z,7.17
2018-06-17T16:09:20.736Z,3.80
2018-06-17T16:11:55.916Z,6.00
2018-06-17T16:14:30.872Z,4.70
2018-06-17T16:17:05.904Z,6.53
2018-06-17T16:19:41.307Z,5.47
2018-06-17T16:22:10.925Z,7.27
2018-06-17T16:24:40.681Z,2.77
2018-06-17T16:27:10.457Z,4.07
2018-06-17T16:29:40.716Z,4.30
2018-06-17T16:32:10.496Z,2.90
2018-06-17T16:34:40.316Z,5.00
2018-06-17T16:37:10.090Z,4.37
2018-06-17T16:39:40.677Z,3.57
2018-06-17T16:42:10.473Z,4.83
2018-06-17T16:44:40.284Z,4.77
2018-06-17T16:47:10.084Z,2.73
2018-06-17T16:49:39.885Z,5.67
2018-06-17T16:52:16.374Z,5.67
2018-06-17T16:54:51.484Z,5.10
2018-06-17T16:57:26.637Z,5.30
2018-06-17T17:00:04.293Z,5.60
2018-06-17T17:02:33.870Z,4.27
2018-06-17T17:05:03.684Z,3.43
2018-06-17T17:07:33.506Z,5.20
2018-06-17T17:10:03.357Z,5.23
2018-06-17T17:12:33.150Z,5.83
2018-06-17T17:15:05.168Z,5.87
2018-06-17T17:17:35.700Z,3.97
2018-06-17T17:20:06.751Z,3.17
2018-06-17T17:22:36.615Z,4.63
2018-06-17T17:25:07.111Z,4.20
2018-06-17T17:27:44.097Z,6.70
2018-06-17T17:30:14.036Z,5.77
2018-06-17T17:32:49.605Z,7.37
2018-06-17T17:35:25.254Z,9.63
2018-06-17T17:38:00.302Z,11.70
2018-06-17T17:40:35.292Z,4.13
2018-06-17T17:43:05.153Z,7.93
2018-06-17T17:45:35.000Z,5.27
2018-06-17T17:48:04.818Z,3.33
2018-06-17T17:50:34.580Z,3.93
2018-06-17T17:53:04.502Z,6.73
2018-06-17T17:55:34.354Z,6.30
2018-06-17T17:58:04.284Z,9.63
2018-06-17T18:00:34.136Z,5.23
2018-06-17T18:03:04.032Z,8.33
2018-06-17T18:05:33.790Z,3.83
2018-06-17T18:08:03.625Z,6.03
2018-06-17T18:10:33.538Z,5.50
2018-06-17T18:13:03.449Z,9.83
2018-06-17T18:15:33.459Z,7.20
2018-06-17T18:18:03.724Z,3.60
2018-06-17T18:20:33.585Z,5.73
2018-06-17T18:23:03.489Z,8.20
2018-06-17T18:25:38.436Z,8.03
2018-06-17T18:28:13.752Z,6.97
2018-06-17T18:30:49.049Z,3.77
2018-06-17T18:33:24.174Z,6.83
2018-06-17T18:35:59.324Z,8.90
2018-06-17T18:38:28.812Z,4.20
2018-06-17T18:40:58.395Z,5.53
2018-06-17T18:43:28.259Z,4.00
2018-06-17T18:45:58.646Z,4.93
2018-06-17T18:48:28.500Z,19.17
2018-06-17T18:50:58.929Z,5.47
2018-06-17T18:53:28.786Z,3.10
2018-06-17T18:55:59.267Z,4.57
2018-06-17T18:58:29.090Z,5.73
2018-06-17T19:00:59.037Z,3.30
2018-06-17T19:03:28.874Z,3.83
2018-06-17T19:05:58.820Z,6.90
2018-06-17T19:08:34.028Z,4.73
2018-06-17T19:11:09.992Z,4.33
2018-06-17T19:13:45.066Z,6.30
2018-06-17T19:16:20.285Z,8.10
2018-06-17T19:18:50.140Z,5.43
2018-06-17T19:21:20.087Z,7.03
2018-06-17T19:23:50.016Z,3.87
2018-06-17T19:26:20.003Z,4.30
2018-06-17T19:28:49.804Z,6.13
2018-06-17T19:31:19.756Z,4.70
2018-06-17T19:33:49.751Z,3.57
2018-06-17T19:36:19.772Z,4.70
2018-06-17T19:38:49.879Z,7.93
2018-06-17T19:41:19.698Z,4.00
2018-06-17T19:43:49.478Z,3.60
2018-06-17T19:46:19.321Z,5.50
2018-06-17T19:48:49.205Z,2.90
2018-06-17T19:51:24.278Z,4.73
2018-06-17T19:53:59.117Z,6.43
2018-06-17T19:56:34.781Z,8.03
2018-06-17T19:59:10.564Z,4.90
2018-06-17T20:01:40.387Z,5.10
2018-06-17T20:04:10.297Z,3.27
2018-06-17T20:06:40.148Z,10.40
2018-06-17T20:09:11.623Z,6.50
2018-06-17T20:11:41.498Z,4.00
2018-06-17T20:14:11.577Z,5.90
2018-06-17T20:16:41.789Z,3.63
2018-06-17T20:19:12.141Z,6.40
2018-06-17T20:21:41.988Z,7.53
2018-06-17T20:24:11.792Z,10.57
2018-06-17T20:26:42.253Z,7.87
2018-06-17T20:29:12.650Z,11.90
2018-06-17T20:32:46.500Z,9.17
2018-06-17T20:35:22.504Z,11.63
2018-06-17T20:37:57.645Z,7.20
2018-06-17T20:40:32.737Z,11.00
2018-06-17T20:43:08.101Z,10.50
2018-06-17T20:45:37.948Z,8.83
2018-06-17T20:48:14.131Z,9.20
2018-06-17T20:50:43.926Z,7.33
2018-06-17T20:53:13.739Z,7.73
2018-06-17T20:55:43.961Z,7.90
2018-06-17T20:58:13.814Z,19.70
2018-06-17T21:00:43.609Z,10.60
2018-06-17T21:03:14.304Z,14.50
2018-06-17T21:05:44.569Z,8.80
2018-06-17T21:08:15.388Z,12.20
2018-06-17T21:10:45.236Z,9.60
2018-06-17T21:13:15.019Z,8.10
2018-06-17T21:15:44.824Z,7.27
2018-06-17T21:18:18.821Z,10.00
2018-06-17T21:20:53.887Z,9.47
2018-06-17T21:23:28.953Z,9.30
2018-06-17T21:26:04.852Z,7.47
2018-06-17T21:28:35.053Z,7.63
2018-06-17T21:31:04.636Z,12.67
2018-06-17T21:33:34.877Z,14.20
2018-06-17T21:36:05.282Z,7.97
2018-06-17T21:38:34.968Z,7.23
2018-06-17T21:41:04.759Z,7.83
2018-06-17T21:43:34.492Z,8.63
2018-06-17T21:46:04.321Z,10.33
2018-06-17T21:48:34.100Z,7.03
2018-06-17T21:51:04.361Z,10.93
2018-06-17T21:53:34.508Z,8.90
2018-06-17T21:56:04.520Z,6.23
2018-06-17T21:58:46.384Z,8.33
2018-06-17T22:01:17.449Z,8.80
2018-06-17T22:03:47.263Z,6.50
2018-06-17T22:06:17.153Z,6.87
2018-06-17T22:08:52.931Z,8.80
2018-06-17T22:11:27.703Z,5.57
2018-06-17T22:14:02.848Z,7.30
2018-06-17T22:16:37.989Z,8.03
2018-06-17T22:19:08.145Z,9.83
2018-06-17T22:21:37.964Z,6.20
2018-06-17T22:24:07.802Z,6.93
2018-06-17T22:26:37.588Z,8.37
2018-06-17T22:29:08.109Z,9.63
2018-06-17T22:31:37.920Z,7.07
2018-06-17T22:34:07.734Z,5.93
2018-06-17T22:36:37.532Z,7.07
2018-06-17T22:39:08.972Z,8.03
2018-06-17T22:41:39.797Z,8.03
2018-06-17T22:44:10.172Z,10.80
2018-06-17T22:46:39.994Z,8.70
2018-06-17T22:49:09.744Z,7.47
2018-06-17T22:51:39.645Z,6.30
2018-06-17T22:54:20.625Z,5.80
2018-06-17T22:56:55.677Z,7.67
2018-06-17T23:00:29.723Z,5.57
2018-06-17T23:03:04.809Z,6.87
2018-06-17T23:05:39.985Z,8.30
2018-06-17T23:08:15.146Z,7.63
2018-06-17T23:10:44.944Z,12.63
2018-06-17T23:13:15.694Z,11.67
2018-06-17T23:15:46.020Z,8.13
2018-06-17T23:18:15.790Z,6.90
2018-06-17T23:20:45.535Z,8.50
2018-06-17T23:23:14.973Z,11.43
2018-06-17T23:25:44.557Z,8.60
2018-06-17T23:28:14.382Z,9.07
2018-06-17T23:30:44.233Z,7.90
2018-06-17T23:33:13.937Z,6.83
2018-06-17T23:35:43.725Z,8.10
2018-06-17T23:38:13.511Z,6.97
2018-06-17T23:40:43.402Z,10.60
2018-06-17T23:43:13.157Z,10.33
2018-06-17T23:45:48.800Z,9.60
2018-06-17T23:48:24.090Z,10.73
2018-06-17T23:50:59.411Z,7.80
2018-06-17T23:53:34.474Z,8.23
2018-06-17T23:56:08.004Z,6.80
2018-06-17T23:58:39.228Z,7.47
